Time;durP1;ratioP1;P1;durP2;ratioP2;P2;SDS_P1;SDS_P2;PMS_P1;PMS_P2;Temp;Humidity;BMP_temperature;BMP_pressure;BME280_temperature;BME280_humidity;BME280_pressure;Samples;Min_cycle;Max_cycle;Signal;HPM_P1;HPM_P2
2023/05/26 00:00:07;;;;;;;1999.90;999.90;;;;;;;18.35;42.20;103088.59;5070007;28;20031;-70
2023/05/26 00:02:36;;;;;;;1999.90;999.90;;;;;;;17.88;43.91;103073.88;5070418;28;20017;-70
2023/05/26 00:05:03;;;;;;;1999.90;999.90;;;;;;;18.56;42.20;103081.41;5051645;28;20548;-70
2023/05/26 00:07:29;;;;;;;1999.90;999.90;;;;;;;19.14;40.92;103080.91;5057201;28;20039;-70
2023/05/26 00:09:55;;;;;;;1999.90;999.90;;;;;;;19.13;41.11;103081.78;5070569;28;20036;-70
2023/05/26 00:12:20;;;;;;;1999.90;999.90;;;;;;;18.73;42.76;103082.16;5071962;28;20028;-69
2023/05/26 00:14:46;;;;;;;1999.90;999.90;;;;;;;19.44;40.66;103076.16;5060993;28;20098;-70
2023/05/26 00:17:12;;;;;;;1999.90;999.90;;;;;;;18.45;41.84;103079.72;5051020;28;20082;-71
2023/05/26 00:19:37;;;;;;;1999.90;999.90;;;;;;;19.46;40.78;103092.06;5049802;28;20055;-71
2023/05/26 00:22:04;;;;;;;1999.90;999.90;;;;;;;20.25;39.09;103085.72;5049287;28;20029;-71
2023/05/26 00:24:29;;;;;;;1999.90;999.90;;;;;;;19.28;40.23;103086.06;5065860;28;20476;-70
2023/05/26 00:26:55;;;;;;;1999.90;999.90;;;;;;;19.72;40.26;103090.84;5070101;28;20077;-70
2023/05/26 00:29:20;;;;;;;1999.90;999.90;;;;;;;18.72;41.76;103090.09;5056273;28;20039;-69
2023/05/26 00:31:45;;;;;;;1999.90;999.90;;;;;;;18.58;41.87;103082.28;5050744;28;20078;-70
2023/05/26 00:34:11;;;;;;;1999.90;999.90;;;;;;;18.78;41.24;103096.25;5050129;28;20052;-70
2023/05/26 00:36:37;;;;;;;1999.90;999.90;;;;;;;18.79;41.56;103098.00;5050897;28;20033;-70
2023/05/26 00:39:02;;;;;;;1999.90;999.90;;;;;;;19.60;40.00;103092.75;5049106;28;20476;-70
2023/05/26 00:41:28;;;;;;;1999.90;999.90;;;;;;;18.97;41.24;103104.03;5062385;28;21425;-70
2023/05/26 00:43:53;;;;;;;1999.90;999.90;;;;;;;19.55;40.18;103102.56;5068395;28;20047;-70
2023/05/26 00:46:18;;;;;;;1999.90;999.90;;;;;;;19.03;41.31;103096.03;5067590;28;20119;-70
2023/05/26 00:48:44;;;;;;;1999.90;999.90;;;;;;;18.25;43.40;103100.16;5059100;28;20036;-69
2023/05/26 00:51:11;;;;;;;1999.90;999.90;;;;;;;18.76;41.40;103092.72;5051829;28;20036;-70
2023/05/26 00:53:41;;;;;;;1999.90;999.90;;;;;;;19.34;40.61;103095.72;5057597;28;20036;-70
2023/05/26 00:56:09;;;;;;;1999.90;999.90;;;;;;;18.89;41.82;103096.19;5048987;28;20033;-70
2023/05/26 00:58:35;;;;;;;1999.90;999.90;;;;;;;19.77;39.23;103094.31;5049212;28;20493;-70
2023/05/26 01:01:01;;;;;;;1999.90;999.90;;;;;;;18.32;41.96;103096.59;5065671;28;20467;-70
2023/05/26 01:03:27;;;;;;;1999.90;999.90;;;;;;;17.70;43.57;103090.72;5068981;28;20020;-70
2023/05/26 01:05:53;;;;;;;1999.90;999.90;;;;;;;18.69;41.33;103095.44;5069581;28;20055;-69
2023/05/26 01:08:19;;;;;;;1999.90;999.90;;;;;;;19.35;40.21;103091.31;5056397;28;20029;-70
2023/05/26 01:10:44;;;;;;;1999.90;999.90;;;;;;;18.87;40.75;103091.75;5060344;28;20028;-70
2023/05/26 01:13:20;;;;;;;1999.90;999.90;;;;;;;18.91;40.98;103099.69;5069256;28;20067;-70
2023/05/26 01:15:59;;;;;;;1999.90;999.90;;;;;;;19.56;39.61;103088.38;5067559;28;20082;-70
2023/05/26 01:18:31;;;;;;;1999.90;999.90;;;;;;;18.18;42.22;103098.47;5070051;28;20111;-70
2023/05/26 01:21:05;;;;;;;1999.90;999.90;;;;;;;18.87;41.97;103094.41;5053684;28;20541;-70
2023/05/26 01:23:52;;;;;;;1999.90;999.90;;;;;;;19.16;41.45;103091.47;5050638;28;20082;-70
2023/05/26 01:26:41;;;;;;;1999.90;999.90;;;;;;;18.39;42.51;103108.88;5048496;28;20061;-70
2023/05/26 01:29:15;;;;;;;1999.90;999.90;;;;;;;18.53;42.27;103099.97;5050239;28;20067;-71
2023/05/26 01:31:41;;;;;;;1999.90;999.90;;;;;;;19.04;40.93;103092.50;5066119;28;20122;-70
2023/05/26 01:34:07;;;;;;;1999.90;999.90;;;;;;;18.52;41.69;103098.19;5066023;28;20131;-70
2023/05/26 01:36:33;;;;;;;1999.90;999.90;;;;;;;18.85;40.73;103097.06;5048978;28;20535;-70
2023/05/26 01:38:59;;;;;;;1999.90;999.90;;;;;;;18.69;41.22;103096.31;5049582;28;20039;-70
2023/05/26 01:41:49;;;;;;;1999.90;999.90;;;;;;;18.22;42.09;103100.19;5049141;28;20017;-70
2023/05/26 01:44:29;;;;;;;1999.90;999.90;;;;;;;19.52;39.54;103105.22;5067010;28;20123;-70
2023/05/26 01:46:55;;;;;;;1999.90;999.90;;;;;;;18.98;40.64;103108.44;5068994;28;20024;-70
2023/05/26 01:49:26;;;;;;;1999.90;999.90;;;;;;;18.27;41.90;103111.59;5068995;28;20023;-70
2023/05/26 01:51:57;;;;;;;1999.90;999.90;;;;;;;18.41;41.67;103104.47;5053570;28;20061;-69
2023/05/26 01:54:25;;;;;;;1999.90;999.90;;;;;;;19.01;40.81;103103.13;5049060;28;20025;-70
2023/05/26 01:56:56;;;;;;;1999.90;999.90;;;;;;;18.41;41.19;103117.72;5056028;28;20016;-70
2023/05/26 01:59:22;;;;;;;1999.90;999.90;;;;;;;18.67;41.21;103107.81;5047836;28;20068;-70
2023/05/26 02:01:48;;;;;;;1999.90;999.90;;;;;;;18.04;42.40;103117.03;5048794;28;20021;-70
2023/05/26 02:04:13;;;;;;;1999.90;999.90;;;;;;;17.17;43.67;103127.84;5048622;28;20029;-70
2023/05/26 02:06:39;;;;;;;1999.90;999.90;;;;;;;18.62;41.91;103118.44;5048250;28;20584;-70
2023/05/26 02:09:05;;;;;;;1999.90;999.90;;;;;;;18.82;41.62;103113.88;5049410;28;20033;-70
2023/05/26 02:11:32;;;;;;;1999.90;999.90;;;;;;;18.66;41.55;103112.22;5050626;28;20597;-70
2023/05/26 02:13:57;;;;;;;1999.90;999.90;;;;;;;17.83;42.62;103118.00;5063067;28;20017;-70
2023/05/26 02:16:23;;;;;;;1999.90;999.90;;;;;;;18.39;41.75;103124.75;5050065;28;20013;-70
2023/05/26 02:18:49;;;;;;;1999.90;999.90;;;;;;;18.10;41.57;103117.88;5062913;28;20492;-69
2023/05/26 02:21:15;;;;;;;1999.90;999.90;;;;;;;17.58;43.75;103123.38;5067723;28;20050;-71
2023/05/26 02:23:43;;;;;;;1999.90;999.90;;;;;;;17.75;43.00;103128.59;5063654;28;20454;-71
2023/05/26 02:26:09;;;;;;;1999.90;999.90;;;;;;;18.14;41.99;103127.56;5064508;28;20473;-69
2023/05/26 02:28:35;;;;;;;1999.90;999.90;;;;;;;18.21;42.25;103127.53;5049918;28;20032;-69
2023/05/26 02:31:01;;;;;;;1999.90;999.90;;;;;;;17.35;43.76;103121.69;5067078;28;20025;-69
2023/05/26 02:33:26;;;;;;;1999.90;999.90;;;;;;;18.06;42.57;103128.50;5069651;28;20032;-70
2023/05/26 02:35:52;;;;;;;1999.90;999.90;;;;;;;18.47;41.69;103125.59;5065637;28;20024;-70
2023/05/26 02:38:17;;;;;;;1999.90;999.90;;;;;;;17.98;41.69;103125.88;5067746;28;20392;-70
2023/05/26 02:40:43;;;;;;;1999.90;999.90;;;;;;;17.83;43.13;103123.28;5054468;28;20032;-69
2023/05/26 02:43:08;;;;;;;1999.90;999.90;;;;;;;18.10;42.00;103123.16;5051617;28;20031;-70
2023/05/26 02:45:33;;;;;;;1999.90;999.90;;;;;;;17.76;43.43;103127.72;5068059;28;20108;-70
2023/05/26 02:47:59;;;;;;;1999.90;999.90;;;;;;;17.49;43.41;103126.03;5061785;28;20037;-70
2023/05/26 02:50:24;;;;;;;1999.90;999.90;;;;;;;17.84;43.34;103123.28;5061813;28;20028;-71
2023/05/26 02:52:50;;;;;;;1999.90;999.90;;;;;;;18.18;42.50;103125.78;5068806;28;20036;-70
2023/05/26 02:55:15;;;;;;;1999.90;999.90;;;;;;;18.22;42.68;103126.66;5063974;28;20025;-70
2023/05/26 02:57:41;;;;;;;1999.90;999.90;;;;;;;17.98;42.81;103136.47;5060144;28;20439;-71
2023/05/26 03:00:07;;;;;;;1999.90;999.90;;;;;;;17.48;43.56;103132.22;5068695;28;20468;-70
2023/05/26 03:02:33;;;;;;;1999.90;999.90;;;;;;;18.03;42.66;103137.34;5064553;28;20020;-69
2023/05/26 03:04:59;;;;;;;1999.90;999.90;;;;;;;16.73;44.97;103137.53;5070313;28;20024;-69
2023/05/26 03:07:24;;;;;;;1999.90;999.90;;;;;;;18.18;42.73;103132.88;5067147;28;20036;-70
2023/05/26 03:09:49;;;;;;;1999.90;999.90;;;;;;;17.12;44.16;103135.78;5054358;28;20416;-70
2023/05/26 03:12:15;;;;;;;1999.90;999.90;;;;;;;17.03;44.58;103122.59;5059086;28;20447;-69
2023/05/26 03:14:42;;;;;;;1999.90;999.90;;;;;;;17.94;43.63;103126.78;5054126;28;20111;-69
2023/05/26 03:17:07;;;;;;;1999.90;999.90;;;;;;;17.53;43.20;103120.75;5071053;28;20510;-70
2023/05/26 03:19:33;;;;;;;1999.90;999.90;;;;;;;16.83;45.24;103126.97;5071454;28;20024;-70
2023/05/26 03:21:58;;;;;;;1999.90;999.90;;;;;;;17.44;44.33;103126.91;5069878;28;20396;-70
2023/05/26 03:24:24;;;;;;;1999.90;999.90;;;;;;;17.63;43.45;103132.19;5072080;28;20104;-70
2023/05/26 03:26:50;;;;;;;1999.90;999.90;;;;;;;17.80;43.19;103135.66;5069886;28;20510;-70
2023/05/26 03:29:15;;;;;;;1999.90;999.90;;;;;;;17.52;43.14;103128.69;5069869;28;20027;-70
2023/05/26 03:31:41;;;;;;;1999.90;999.90;;;;;;;17.75;42.72;103136.53;5065081;28;20036;-69
2023/05/26 03:34:06;;;;;;;1999.90;999.90;;;;;;;17.63;43.13;103137.47;5050987;28;20020;-70
2023/05/26 03:36:32;;;;;;;1999.90;999.90;;;;;;;17.61;43.04;103133.94;5051090;28;20029;-69
2023/05/26 03:38:57;;;;;;;1999.90;999.90;;;;;;;18.44;42.00;103143.28;5060525;28;20028;-70
2023/05/26 03:41:22;;;;;;;1999.90;999.90;;;;;;;17.90;42.15;103140.88;5070026;28;20480;-69
2023/05/26 03:43:48;;;;;;;1999.90;999.90;;;;;;;17.88;42.60;103135.59;5070665;28;20057;-69
2023/05/26 03:46:13;;;;;;;1999.90;999.90;;;;;;;17.54;43.32;103137.47;5070567;28;20111;-70
2023/05/26 03:48:39;;;;;;;1999.90;999.90;;;;;;;18.24;42.44;103138.97;5072456;28;20535;-70
2023/05/26 03:51:04;;;;;;;1999.90;999.90;;;;;;;17.89;42.58;103133.84;5068900;28;20418;-70
2023/05/26 03:53:30;;;;;;;1999.90;999.90;;;;;;;18.20;42.10;103141.66;5067180;28;20021;-70
2023/05/26 03:55:56;;;;;;;1999.90;999.90;;;;;;;16.67;46.06;103147.22;5069121;28;20058;-70
2023/05/26 03:58:22;;;;;;;1999.90;999.90;;;;;;;17.17;44.39;103153.41;5069279;28;20064;-70
2023/05/26 04:00:47;;;;;;;1999.90;999.90;;;;;;;17.36;43.47;103139.28;5069609;28;20104;-70
2023/05/26 04:03:13;;;;;;;1999.90;999.90;;;;;;;16.24;45.91;103153.28;5051944;28;20377;-71
2023/05/26 04:05:38;;;;;;;1999.90;999.90;;;;;;;17.90;42.46;103151.47;5070561;28;20025;-69
2023/05/26 04:08:04;;;;;;;1999.90;999.90;;;;;;;18.05;42.67;103146.16;5068858;28;20492;-70
2023/05/26 04:10:29;;;;;;;1999.90;999.90;;;;;;;17.83;43.00;103144.44;5056534;28;20036;-69
2023/05/26 04:12:55;;;;;;;1999.90;999.90;;;;;;;18.41;42.10;103148.56;5065229;28;20552;-69
2023/05/26 04:15:20;;;;;;;1999.90;999.90;;;;;;;18.53;41.60;103147.63;5071764;28;20031;-70
2023/05/26 04:17:46;;;;;;;1999.90;999.90;;;;;;;18.09;41.48;103153.19;5068982;28;20512;-69
2023/05/26 04:20:11;;;;;;;1999.90;999.90;;;;;;;18.25;42.19;103147.81;5061902;28;20075;-70
2023/05/26 04:22:43;;;;;;;1999.90;999.90;;;;;;;17.99;42.68;103158.53;5053579;28;20024;-69
2023/05/26 04:25:08;;;;;;;1999.90;999.90;;;;;;;17.79;42.79;103154.13;5066284;28;20055;-70
2023/05/26 04:27:37;;;;;;;1999.90;999.90;;;;;;;18.66;41.49;103157.25;5059563;28;20065;-71
2023/05/26 04:30:06;;;;;;;1999.90;999.90;;;;;;;17.84;42.46;103152.38;5049827;28;20078;-70
2023/05/26 04:32:33;;;;;;;1999.90;999.90;;;;;;;18.11;42.51;103151.41;5054463;28;20049;-69
2023/05/26 04:35:00;;;;;;;1999.90;999.90;;;;;;;18.46;41.82;103158.28;5065758;28;20477;-70
2023/05/26 04:37:26;;;;;;;1999.90;999.90;;;;;;;18.10;42.10;103165.50;5052548;28;20049;-69
2023/05/26 04:39:51;;;;;;;1999.90;999.90;;;;;;;19.37;40.33;103148.72;5057713;28;20032;-70
2023/05/26 04:42:19;;;;;;;1999.90;999.90;;;;;;;19.44;40.56;103155.72;5069356;28;20028;-70
2023/05/26 04:44:44;;;;;;;1999.90;999.90;;;;;;;18.73;40.68;103161.63;5059196;28;20028;-70
2023/05/26 04:47:10;;;;;;;1999.90;999.90;;;;;;;20.03;39.40;103155.06;5062474;28;20454;-71
2023/05/26 04:49:36;;;;;;;1999.90;999.90;;;;;;;20.45;37.38;103162.44;5055971;28;20079;-72
2023/05/26 04:52:02;;;;;;;1999.90;999.90;;;;;;;19.29;39.71;103167.34;5049150;28;20033;-71
2023/05/26 04:54:28;;;;;;;1999.90;999.90;;;;;;;18.86;40.30;103183.59;5060402;28;20027;-71
2023/05/26 04:56:53;;;;;;;1999.90;999.90;;;;;;;18.77;39.81;103176.59;5061106;28;20038;-70
2023/05/26 04:59:21;;;;;;;1999.90;999.90;;;;;;;19.38;39.47;103170.81;5070818;28;20049;-72
2023/05/26 05:01:47;;;;;;;1999.90;999.90;;;;;;;19.20;39.11;103171.88;5069154;28;20020;-72
2023/05/26 05:04:13;;;;;;;1999.90;999.90;;;;;;;18.58;40.49;103188.22;5056874;28;20025;-70
2023/05/26 05:06:39;;;;;;;1999.90;999.90;;;;;;;19.81;38.41;103187.19;5057198;28;20035;-71
2023/05/26 05:09:05;;;;;;;1999.90;999.90;;;;;;;18.88;40.46;103204.81;5050615;28;20058;-71
2023/05/26 05:11:30;;;;;;;1999.90;999.90;;;;;;;19.10;40.04;103193.16;5048642;28;20061;-71
2023/05/26 05:13:55;;;;;;;1999.90;999.90;;;;;;;18.60;41.23;103199.66;5050110;28;20060;-71
2023/05/26 05:16:21;;;;;;;1999.90;999.90;;;;;;;18.28;41.40;103206.88;5056429;28;20024;-71
2023/05/26 05:18:47;;;;;;;1999.90;999.90;;;;;;;18.12;41.18;103205.19;5063873;28;20032;-71
2023/05/26 05:21:12;;;;;;;1999.90;999.90;;;;;;;17.53;42.68;103209.75;5069439;28;20107;-70
2023/05/26 05:23:37;;;;;;;1999.90;999.90;;;;;;;18.82;40.91;103208.34;5062304;28;20107;-71
2023/05/26 05:26:03;;;;;;;1999.90;999.90;;;;;;;18.34;41.75;103211.31;5048671;28;20040;-71
2023/05/26 05:28:29;;;;;;;1999.90;999.90;;;;;;;18.46;41.03;103211.25;5055233;28;20064;-71
2023/05/26 05:30:55;;;;;;;1999.90;999.90;;;;;;;19.30;39.57;103205.34;5066800;28;20034;-72
2023/05/26 05:33:20;;;;;;;1999.90;999.90;;;;;;;19.19;39.62;103217.81;5065464;28;20025;-71
2023/05/26 05:35:46;;;;;;;1999.90;999.90;;;;;;;20.52;37.71;103211.91;5047760;28;20083;-70
2023/05/26 05:38:12;;;;;;;1999.90;999.90;;;;;;;19.89;38.55;103216.25;5058870;28;20024;-69
2023/05/26 05:40:38;;;;;;;1999.90;999.90;;;;;;;19.94;38.26;103213.56;5060491;28;20025;-70
2023/05/26 05:43:03;;;;;;;1999.90;999.90;;;;;;;20.02;38.96;103211.69;5052636;28;20477;-70
2023/05/26 05:45:29;;;;;;;1999.90;999.90;;;;;;;19.81;38.71;103208.41;5057543;28;20025;-70
2023/05/26 05:47:55;;;;;;;1999.90;999.90;;;;;;;20.01;37.92;103215.25;5052051;28;20420;-70
2023/05/26 05:50:20;;;;;;;1999.90;999.90;;;;;;;19.29;39.51;103214.22;5061454;28;20087;-71
2023/05/26 05:52:45;;;;;;;1999.90;999.90;;;;;;;19.63;38.90;103216.50;5067625;28;20029;-71
2023/05/26 05:55:11;;;;;;;1999.90;999.90;;;;;;;19.67;38.84;103220.88;5068617;28;20031;-70
2023/05/26 05:57:36;;;;;;;1999.90;999.90;;;;;;;20.46;37.63;103218.19;5068403;28;20052;-69
2023/05/26 06:00:04;;;;;;;1999.90;999.90;;;;;;;20.17;38.09;103221.25;5050166;28;20048;-71
2023/05/26 06:02:29;;;;;;;1999.90;999.90;;;;;;;20.00;37.78;103219.69;5065556;28;20021;-71
2023/05/26 06:04:55;;;;;;;1999.90;999.90;;;;;;;18.91;39.49;103233.94;5050007;28;20051;-72
2023/05/26 06:07:20;;;;;;;1999.90;999.90;;;;;;;20.20;38.22;103228.31;5059694;28;20020;-70
2023/05/26 06:09:45;;;;;;;1999.90;999.90;;;;;;;20.61;37.12;103221.56;5061594;28;20115;-70
2023/05/26 06:12:11;;;;;;;1999.90;999.90;;;;;;;19.33;39.16;103227.41;5053977;28;20028;-71
2023/05/26 06:14:38;;;;;;;1999.90;999.90;;;;;;;21.35;35.88;103223.06;5058560;28;20020;-70
2023/05/26 06:17:03;;;;;;;1999.90;999.90;;;;;;;20.71;36.85;103223.19;5054573;28;20106;-70
2023/05/26 06:19:29;;;;;;;1999.90;999.90;;;;;;;20.33;37.79;103222.81;5055125;28;20127;-71
2023/05/26 06:21:54;;;;;;;1999.90;999.90;;;;;;;20.49;37.22;103222.59;5064714;28;20032;-70
2023/05/26 06:24:20;;;;;;;1999.90;999.90;;;;;;;21.30;35.21;103216.94;5074287;28;20166;-70
2023/05/26 06:26:45;;;;;;;1999.90;999.90;;;;;;;21.15;35.61;103234.88;5075127;28;20472;-69
2023/05/26 06:29:10;;;;;;;1999.90;999.90;;;;;;;24.15;31.23;103225.44;5061044;28;20032;-71
2023/05/26 06:31:36;;;;;;;1999.90;999.90;;;;;;;23.72;31.67;103229.31;5061386;28;20039;-70
2023/05/26 06:34:01;;;;;;;1999.90;999.90;;;;;;;22.12;33.24;103234.91;5074885;28;20495;-70
2023/05/26 06:36:26;;;;;;;1999.90;999.90;;;;;;;21.49;34.02;103231.66;5058061;28;20067;-70
2023/05/26 06:38:52;;;;;;;1999.90;999.90;;;;;;;21.82;34.78;103234.59;5061206;28;20143;-69
2023/05/26 06:41:17;;;;;;;1999.90;999.90;;;;;;;22.50;33.22;103235.91;5070082;28;20028;-70
2023/05/26 06:43:43;;;;;;;1999.90;999.90;;;;;;;21.32;34.96;103237.28;5061226;28;20036;-70
2023/05/26 06:46:08;;;;;;;1999.90;999.90;;;;;;;21.32;34.69;103244.38;5054184;28;20137;-70
2023/05/26 06:48:33;;;;;;;1999.90;999.90;;;;;;;21.23;35.26;103247.19;5064133;28;20035;-70
2023/05/26 06:50:59;;;;;;;1999.90;999.90;;;;;;;21.52;33.75;103239.59;5060372;28;20123;-70
2023/05/26 06:53:24;;;;;;;1999.90;999.90;;;;;;;22.37;32.63;103237.06;5060311;28;20027;-71
2023/05/26 06:55:50;;;;;;;1999.90;999.90;;;;;;;22.49;32.86;103239.47;5070265;28;20054;-70
2023/05/26 06:58:15;;;;;;;1999.90;999.90;;;;;;;24.10;30.46;103247.84;5061567;28;20146;-70
2023/05/26 07:00:58;;;;;;;1999.90;999.90;;;;;;;22.92;31.96;103242.06;5058798;28;20025;-70
2023/05/26 07:03:25;;;;;;;1999.90;999.90;;;;;;;22.25;32.98;103245.31;5065113;28;20150;-69
2023/05/26 07:05:52;;;;;;;1999.90;999.90;;;;;;;22.19;33.60;103248.97;5073977;28;20063;-70
2023/05/26 07:08:18;;;;;;;1999.90;999.90;;;;;;;23.17;32.05;103245.88;5074877;28;20029;-70
2023/05/26 07:10:43;;;;;;;1999.90;999.90;;;;;;;22.93;32.11;103254.44;5056453;28;20032;-70
2023/05/26 07:13:08;;;;;;;1999.90;999.90;;;;;;;22.78;32.42;103261.91;5068655;28;20043;-70
2023/05/26 07:15:34;;;;;;;1999.90;999.90;;;;;;;23.41;30.84;103254.19;5071367;28;20036;-70
2023/05/26 07:17:59;;;;;;;1999.90;999.90;;;;;;;25.85;27.82;103246.59;5062170;28;20553;-70
2023/05/26 07:20:25;;;;;;;1999.90;999.90;;;;;;;27.08;26.22;103242.75;5066754;28;20454;-71
2023/05/26 07:22:50;;;;;;;1999.90;999.90;;;;;;;26.86;26.53;103240.97;5057693;28;20029;-70
2023/05/26 07:25:16;;;;;;;1999.90;999.90;;;;;;;26.90;26.24;103239.91;5054439;28;20100;-69
2023/05/26 07:27:41;;;;;;;1999.90;999.90;;;;;;;27.23;25.58;103238.50;5054580;28;20033;-70
2023/05/26 07:30:07;;;;;;;1999.90;999.90;;;;;;;26.54;26.26;103242.25;5049753;28;20029;-70
2023/05/26 07:32:33;;;;;;;1999.90;999.90;;;;;;;26.39;26.51;103251.75;5052841;28;20111;-70
2023/05/26 07:34:58;;;;;;;1999.90;999.90;;;;;;;27.48;26.50;103238.38;5051020;28;20550;-71
2023/05/26 07:37:24;;;;;;;1999.90;999.90;;;;;;;28.86;24.05;103234.66;5059017;28;20029;-71
2023/05/26 07:39:49;;;;;;;1999.90;999.90;;;;;;;28.85;24.21;103235.59;5070611;28;20125;-70
2023/05/26 07:42:15;;;;;;;1999.90;999.90;;;;;;;28.85;24.13;103225.72;5063032;28;20473;-71
2023/05/26 07:44:41;;;;;;;1999.90;999.90;;;;;;;27.68;24.97;103231.22;5069806;28;20036;-71
2023/05/26 07:47:06;;;;;;;1999.90;999.90;;;;;;;27.17;24.75;103231.59;5072273;28;20114;-70
2023/05/26 07:49:32;;;;;;;1999.90;999.90;;;;;;;27.36;25.22;103226.34;5072280;28;20036;-71
2023/05/26 07:51:57;;;;;;;1999.90;999.90;;;;;;;27.08;24.99;103227.53;5068027;28;20027;-71
2023/05/26 07:54:23;;;;;;;1999.90;999.90;;;;;;;28.65;24.59;103224.03;5071093;28;20025;-70
2023/05/26 07:56:48;;;;;;;1999.90;999.90;;;;;;;30.03;23.11;103224.97;5070375;28;20021;-70
2023/05/26 07:59:15;;;;;;;1999.90;999.90;;;;;;;30.20;21.95;103221.31;5069917;28;20516;-70
2023/05/26 08:01:41;;;;;;;1999.90;999.90;;;;;;;29.20;22.77;103230.25;5067704;28;20040;-70
2023/05/26 08:04:06;;;;;;;1999.90;999.90;;;;;;;30.48;21.97;103231.44;5055639;28;20117;-70
2023/05/26 08:06:32;;;;;;;1999.90;999.90;;;;;;;29.40;22.15;103231.91;5071244;28;20115;-70
2023/05/26 08:08:57;;;;;;;1999.90;999.90;;;;;;;28.71;23.26;103230.91;5070264;28;20025;-70
2023/05/26 08:11:23;;;;;;;1999.90;999.90;;;;;;;28.53;23.62;103230.84;5072060;28;20032;-70
2023/05/26 08:13:48;;;;;;;1999.90;999.90;;;;;;;28.21;22.89;103221.66;5049321;28;20032;-69
2023/05/26 08:16:15;;;;;;;1999.90;999.90;;;;;;;28.67;23.12;103221.25;5050616;28;20041;-70
2023/05/26 08:18:41;;;;;;;1999.90;999.90;;;;;;;29.46;22.66;103226.22;5049744;28;20155;-71
2023/05/26 08:21:07;;;;;;;1999.90;999.90;;;;;;;29.45;21.02;103221.78;5050556;28;20455;-70
2023/05/26 08:23:32;;;;;;;1999.90;999.90;;;;;;;29.74;21.08;103219.34;5057854;28;20033;-69
2023/05/26 08:25:57;;;;;;;1999.90;999.90;;;;;;;29.52;21.03;103223.19;5064219;28;20513;-69
2023/05/26 08:28:23;;;;;;;1999.90;999.90;;;;;;;29.79;21.83;103223.50;5049129;28;20603;-70
2023/05/26 08:30:48;;;;;;;1999.90;999.90;;;;;;;30.65;22.11;103235.00;5058299;28;20035;-69
2023/05/26 08:33:14;;;;;;;1999.90;999.90;;;;;;;31.06;20.85;103234.41;5063669;28;20025;-69
2023/05/26 08:35:39;;;;;;;1999.90;999.90;;;;;;;29.88;21.66;103229.38;5057369;28;20496;-69
2023/05/26 08:38:04;;;;;;;1999.90;999.90;;;;;;;31.62;20.59;103224.66;5050729;28;20070;-69
2023/05/26 08:40:30;;;;;;;1999.90;999.90;;;;;;;30.45;21.75;103237.88;5059522;28;20098;-68
2023/05/26 08:42:58;;;;;;;1999.90;999.90;;;;;;;30.38;21.19;103235.59;5055126;28;20166;-68
2023/05/26 08:45:24;;;;;;;1999.90;999.90;;;;;;;28.64;22.68;103226.78;5067723;28;20023;-69
2023/05/26 08:47:51;;;;;;;1999.90;999.90;;;;;;;30.36;22.05;103221.31;5065989;28;20044;-68
2023/05/26 08:50:17;;;;;;;1999.90;999.90;;;;;;;30.60;21.24;103225.34;5064624;28;20025;-69
2023/05/26 08:52:43;;;;;;;1999.90;999.90;;;;;;;30.96;20.31;103229.50;5058267;28;20036;-68
2023/05/26 08:55:09;;;;;;;1999.90;999.90;;;;;;;30.71;21.00;103231.94;5054366;28;20029;-68
2023/05/26 08:57:34;;;;;;;1999.90;999.90;;;;;;;31.77;20.54;103221.97;5057274;28;20131;-68
2023/05/26 09:00:02;;;;;;;1999.90;999.90;;;;;;;31.68;20.91;103228.81;5067831;28;20285;-69
2023/05/26 09:02:27;;;;;;;1999.90;999.90;;;;;;;32.53;19.69;103228.78;5047430;28;20037;-69
2023/05/26 09:04:53;;;;;;;1999.90;999.90;;;;;;;31.86;20.89;103225.91;5049830;28;20051;-69
2023/05/26 09:07:18;;;;;;;1999.90;999.90;;;;;;;32.20;19.79;103224.63;5063541;28;20024;-69
2023/05/26 09:09:44;;;;;;;1999.90;999.90;;;;;;;31.57;20.53;103220.47;5045219;28;20029;-70
2023/05/26 09:12:11;;;;;;;1999.90;999.90;;;;;;;31.68;20.89;103227.94;5067313;28;20020;-70
2023/05/26 09:14:38;;;;;;;1999.90;999.90;;;;;;;32.07;21.50;103218.28;5064902;28;20028;-71
2023/05/26 09:17:04;;;;;;;1999.90;999.90;;;;;;;32.20;19.35;103224.63;5048308;28;20029;-69
2023/05/26 09:19:32;;;;;;;1999.90;999.90;;;;;;;32.46;19.28;103243.69;5066695;28;20101;-69
2023/05/26 09:22:05;;;;;;;1999.90;999.90;;;;;;;32.80;19.42;103227.94;5068280;28;20056;-68
2023/05/26 09:24:48;;;;;;;1999.90;999.90;;;;;;;33.23;19.10;103229.53;5067654;28;20028;-70
2023/05/26 09:27:21;;;;;;;1999.90;999.90;;;;;;;32.28;20.39;103227.69;5048610;28;20052;-69
2023/05/26 09:29:54;;;;;;;1999.90;999.90;;;;;;;34.15;18.20;103222.09;5063368;28;20020;-69
2023/05/26 09:32:25;;;;;;;1999.90;999.90;;;;;;;31.97;19.24;103229.69;5067567;28;20028;-70
2023/05/26 09:34:51;;;;;;;1999.90;999.90;;;;;;;32.47;19.15;103231.91;5066985;28;20059;-69
2023/05/26 09:37:16;;;;;;;1999.90;999.90;;;;;;;32.20;20.09;103227.34;5064667;28;20074;-69
2023/05/26 09:39:42;;;;;;;1999.90;999.90;;;;;;;32.22;18.83;103225.41;5067757;28;20047;-69
2023/05/26 09:42:08;;;;;;;1999.90;999.90;;;;;;;31.70;19.53;103220.63;5068070;28;20024;-68
2023/05/26 09:44:33;;;;;;;1999.90;999.90;;;;;;;32.94;18.43;103227.84;5067330;28;20056;-68
2023/05/26 09:46:59;;;;;;;1999.90;999.90;;;;;;;30.83;20.49;103225.81;5060824;28;20514;-68
2023/05/26 09:49:25;;;;;;;1999.90;999.90;;;;;;;32.15;19.54;103226.78;5053371;28;20034;-69
2023/05/26 09:51:50;;;;;;;1999.90;999.90;;;;;;;31.26;20.46;103225.97;5048912;28;20029;-68
2023/05/26 09:54:16;;;;;;;1999.90;999.90;;;;;;;30.93;20.84;103227.00;5065564;28;20473;-69
2023/05/26 09:56:53;;;;;;;1999.90;999.90;;;;;;;32.65;20.17;103225.25;5055804;28;20041;-69
2023/05/26 09:59:20;;;;;;;1999.90;999.90;;;;;;;32.56;20.35;103219.59;5048985;28;20088;-68
2023/05/26 10:01:46;;;;;;;1999.90;999.90;;;;;;;30.47;20.58;103218.91;5054718;28;20021;-69
2023/05/26 10:04:14;;;;;;;1999.90;999.90;;;;;;;31.94;20.84;103219.06;5057042;28;20090;-69
2023/05/26 10:06:43;;;;;;;1999.90;999.90;;;;;;;30.87;21.03;103208.50;5055696;28;20400;-68
2023/05/26 10:09:10;;;;;;;1999.90;999.90;;;;;;;33.12;19.25;103206.75;5051835;28;20028;-69
2023/05/26 10:11:42;;;;;;;1999.90;999.90;;;;;;;31.57;19.57;103210.56;5055685;28;20063;-67
2023/05/26 10:14:08;;;;;;;1999.90;999.90;;;;;;;31.71;19.53;103209.72;5056027;28;20016;-68
2023/05/26 10:16:35;;;;;;;1999.90;999.90;;;;;;;28.21;22.14;103218.97;5061134;28;20024;-68
2023/05/26 10:19:00;;;;;;;1999.90;999.90;;;;;;;30.14;20.67;103221.69;5058766;28;20584;-67
2023/05/26 10:21:32;;;;;;;1999.90;999.90;;;;;;;31.70;19.85;103209.81;5064078;28;20020;-68
2023/05/26 10:24:18;;;;;;;;;;;;;;;31.92;19.96;103193.94;5058871;28;20028;-69
2023/05/26 10:26:52;;;;;;;1999.90;999.90;;;;;;;32.77;19.27;103198.38;5046201;28;19913;-68
2023/05/26 10:29:24;;;;;;;1999.90;999.90;;;;;;;31.60;19.52;103198.69;5058133;28;20032;-68
2023/05/26 10:31:49;;;;;;;1999.90;999.90;;;;;;;31.07;19.06;103201.03;5058779;28;20032;-67
2023/05/26 10:34:41;;;;;;;1999.90;999.90;;;;;;;29.85;21.90;103194.53;5050243;28;20028;-68
2023/05/26 10:37:17;;;;;;;1999.90;999.90;;;;;;;30.72;20.35;103204.88;5054922;28;20112;-70
2023/05/26 10:39:43;;;;;;;1999.90;999.90;;;;;;;30.28;21.02;103203.75;5066029;28;20090;-68
2023/05/26 10:42:18;;;;;;;1999.90;999.90;;;;;;;31.46;19.76;103191.44;5056120;28;20032;-68
2023/05/26 10:44:54;;;;;;;1999.90;999.90;;;;;;;29.80;21.34;103194.75;5056931;28;20082;-68